sensor_id;sensor_type;location;lat;lon;timestamp;P1;durP1;ratioP1;P2;durP2;ratioP2
51836;SDS011;38941;53.254;6.600;2024-02-26T00:01:41;14.80;;;7.63;;
51836;SDS011;38941;53.254;6.600;2024-02-26T00:03:43;14.07;;;6.97;;
51836;SDS011;38941;53.254;6.600;2024-02-26T00:05:45;19.15;;;7.57;;
51836;SDS011;38941;53.254;6.600;2024-02-26T00:07:46;19.15;;;8.50;;
51836;SDS011;38941;53.254;6.600;2024-02-26T00:09:47;16.40;;;7.70;;
51836;SDS011;38941;53.254;6.600;2024-02-26T00:11:48;14.20;;;6.90;;
51836;SDS011;38941;53.254;6.600;2024-02-26T00:13:48;16.70;;;6.82;;
51836;SDS011;38941;53.254;6.600;2024-02-26T00:15:49;11.60;;;5.93;;
51836;SDS011;38941;53.254;6.600;2024-02-26T00:17:50;14.52;;;6.75;;
51836;SDS011;38941;53.254;6.600;2024-02-26T00:19:50;13.73;;;6.55;;
51836;SDS011;38941;53.254;6.600;2024-02-26T00:21:52;15.57;;;6.93;;
51836;SDS011;38941;53.254;6.600;2024-02-26T00:23:57;12.43;;;6.20;;
51836;SDS011;38941;53.254;6.600;2024-02-26T00:25:59;14.77;;;6.47;;
51836;SDS011;38941;53.254;6.600;2024-02-26T00:28:00;12.73;;;5.93;;
51836;SDS011;38941;53.254;6.600;2024-02-26T00:30:01;10.93;;;6.15;;
51836;SDS011;38941;53.254;6.600;2024-02-26T00:32:02;13.00;;;6.35;;
51836;SDS011;38941;53.254;6.600;2024-02-26T00:34:03;10.57;;;5.68;;
51836;SDS011;38941;53.254;6.600;2024-02-26T00:36:05;13.52;;;6.53;;
51836;SDS011;38941;53.254;6.600;2024-02-26T00:38:06;12.13;;;6.43;;
51836;SDS011;38941;53.254;6.600;2024-02-26T00:40:07;14.48;;;6.75;;
51836;SDS011;38941;53.254;6.600;2024-02-26T00:42:09;14.68;;;7.55;;
51836;SDS011;38941;53.254;6.600;2024-02-26T00:44:09;14.35;;;6.93;;
51836;SDS011;38941;53.254;6.600;2024-02-26T00:46:16;16.88;;;7.35;;
51836;SDS011;38941;53.254;6.600;2024-02-26T00:48:17;13.25;;;6.30;;
51836;SDS011;38941;53.254;6.600;2024-02-26T00:50:19;14.27;;;6.53;;
51836;SDS011;38941;53.254;6.600;2024-02-26T00:52:21;11.85;;;6.22;;
51836;SDS011;38941;53.254;6.600;2024-02-26T00:54:22;14.05;;;6.72;;
51836;SDS011;38941;53.254;6.600;2024-02-26T00:56:28;10.98;;;5.90;;
51836;SDS011;38941;53.254;6.600;2024-02-26T00:58:29;12.52;;;5.97;;
51836;SDS011;38941;53.254;6.600;2024-02-26T01:00:31;14.45;;;6.47;;
51836;SDS011;38941;53.254;6.600;2024-02-26T01:02:33;14.73;;;6.72;;
51836;SDS011;38941;53.254;6.600;2024-02-26T01:04:36;11.60;;;5.72;;
51836;SDS011;38941;53.254;6.600;2024-02-26T01:06:38;12.02;;;6.88;;
51836;SDS011;38941;53.254;6.600;2024-02-26T01:08:38;9.98;;;5.43;;
51836;SDS011;38941;53.254;6.600;2024-02-26T01:10:40;9.00;;;5.40;;
51836;SDS011;38941;53.254;6.600;2024-02-26T01:12:43;11.73;;;6.22;;
51836;SDS011;38941;53.254;6.600;2024-02-26T01:14:44;11.20;;;6.45;;
51836;SDS011;38941;53.254;6.600;2024-02-26T01:16:45;12.05;;;6.20;;
51836;SDS011;38941;53.254;6.600;2024-02-26T01:18:46;12.32;;;6.18;;
51836;SDS011;38941;53.254;6.600;2024-02-26T01:20:47;10.18;;;5.30;;
51836;SDS011;38941;53.254;6.600;2024-02-26T01:22:48;9.55;;;4.97;;
51836;SDS011;38941;53.254;6.600;2024-02-26T01:24:48;11.25;;;5.28;;
51836;SDS011;38941;53.254;6.600;2024-02-26T01:26:52;10.25;;;5.13;;
51836;SDS011;38941;53.254;6.600;2024-02-26T01:28:53;8.63;;;4.82;;
51836;SDS011;38941;53.254;6.600;2024-02-26T01:30:55;9.88;;;5.18;;
51836;SDS011;38941;53.254;6.600;2024-02-26T01:32:56;7.80;;;5.03;;
51836;SDS011;38941;53.254;6.600;2024-02-26T01:34:58;11.07;;;5.15;;
51836;SDS011;38941;53.254;6.600;2024-02-26T01:37:05;10.77;;;4.65;;
51836;SDS011;38941;53.254;6.600;2024-02-26T01:39:06;10.07;;;4.78;;
51836;SDS011;38941;53.254;6.600;2024-02-26T01:41:07;8.55;;;4.43;;
51836;SDS011;38941;53.254;6.600;2024-02-26T01:43:08;9.00;;;4.75;;
51836;SDS011;38941;53.254;6.600;2024-02-26T01:45:12;8.35;;;4.38;;
51836;SDS011;38941;53.254;6.600;2024-02-26T01:47:16;7.78;;;4.07;;
51836;SDS011;38941;53.254;6.600;2024-02-26T01:49:19;9.35;;;4.00;;
51836;SDS011;38941;53.254;6.600;2024-02-26T01:51:20;6.68;;;3.92;;
51836;SDS011;38941;53.254;6.600;2024-02-26T01:53:21;6.10;;;3.47;;
51836;SDS011;38941;53.254;6.600;2024-02-26T01:55:27;5.57;;;3.53;;
51836;SDS011;38941;53.254;6.600;2024-02-26T01:57:28;8.38;;;3.70;;
51836;SDS011;38941;53.254;6.600;2024-02-26T01:59:30;8.40;;;4.07;;
51836;SDS011;38941;53.254;6.600;2024-02-26T02:01:32;7.85;;;3.70;;
51836;SDS011;38941;53.254;6.600;2024-02-26T02:03:34;7.03;;;3.63;;
51836;SDS011;38941;53.254;6.600;2024-02-26T02:05:38;7.25;;;3.60;;
51836;SDS011;38941;53.254;6.600;2024-02-26T02:07:43;6.15;;;3.65;;
51836;SDS011;38941;53.254;6.600;2024-02-26T02:09:47;7.28;;;3.95;;
51836;SDS011;38941;53.254;6.600;2024-02-26T02:11:47;7.63;;;3.85;;
51836;SDS011;38941;53.254;6.600;2024-02-26T02:13:49;7.40;;;4.18;;
51836;SDS011;38941;53.254;6.600;2024-02-26T02:15:50;9.07;;;4.07;;
51836;SDS011;38941;53.254;6.600;2024-02-26T02:17:54;7.28;;;4.07;;
51836;SDS011;38941;53.254;6.600;2024-02-26T02:19:56;7.50;;;4.00;;
51836;SDS011;38941;53.254;6.600;2024-02-26T02:22:02;5.95;;;3.45;;
51836;SDS011;38941;53.254;6.600;2024-02-26T02:24:04;9.88;;;4.07;;
51836;SDS011;38941;53.254;6.600;2024-02-26T02:26:11;7.07;;;4.32;;
51836;SDS011;38941;53.254;6.600;2024-02-26T02:28:12;6.95;;;3.70;;
51836;SDS011;38941;53.254;6.600;2024-02-26T02:30:13;6.55;;;3.80;;
51836;SDS011;38941;53.254;6.600;2024-02-26T02:32:18;8.45;;;3.58;;
51836;SDS011;38941;53.254;6.600;2024-02-26T02:34:21;6.55;;;3.78;;
51836;SDS011;38941;53.254;6.600;2024-02-26T02:36:25;6.45;;;3.92;;
51836;SDS011;38941;53.254;6.600;2024-02-26T02:38:26;7.47;;;4.00;;
51836;SDS011;38941;53.254;6.600;2024-02-26T02:40:33;5.97;;;3.47;;
51836;SDS011;38941;53.254;6.600;2024-02-26T02:42:34;8.15;;;3.38;;
51836;SDS011;38941;53.254;6.600;2024-02-26T02:44:36;6.97;;;3.85;;
51836;SDS011;38941;53.254;6.600;2024-02-26T02:46:42;7.82;;;3.58;;
51836;SDS011;38941;53.254;6.600;2024-02-26T02:48:43;5.65;;;3.05;;
51836;SDS011;38941;53.254;6.600;2024-02-26T02:52:49;5.90;;;3.17;;
51836;SDS011;38941;53.254;6.600;2024-02-26T02:54:51;5.22;;;3.15;;
51836;SDS011;38941;53.254;6.600;2024-02-26T02:56:54;7.20;;;3.50;;
51836;SDS011;38941;53.254;6.600;2024-02-26T02:58:54;6.53;;;3.38;;
51836;SDS011;38941;53.254;6.600;2024-02-26T03:00:56;4.88;;;2.95;;
51836;SDS011;38941;53.254;6.600;2024-02-26T03:02:57;7.18;;;3.20;;
51836;SDS011;38941;53.254;6.600;2024-02-26T03:04:58;7.53;;;2.75;;
51836;SDS011;38941;53.254;6.600;2024-02-26T03:06:59;6.03;;;3.08;;
51836;SDS011;38941;53.254;6.600;2024-02-26T03:09:02;5.28;;;2.90;;
51836;SDS011;38941;53.254;6.600;2024-02-26T03:11:04;4.88;;;3.03;;
51836;SDS011;38941;53.254;6.600;2024-02-26T03:13:12;5.57;;;2.90;;
51836;SDS011;38941;53.254;6.600;2024-02-26T03:15:13;5.68;;;2.85;;
51836;SDS011;38941;53.254;6.600;2024-02-26T03:17:15;4.90;;;2.70;;
51836;SDS011;38941;53.254;6.600;2024-02-26T03:19:17;5.32;;;2.97;;
51836;SDS011;38941;53.254;6.600;2024-02-26T03:21:25;4.45;;;2.67;;
51836;SDS011;38941;53.254;6.600;2024-02-26T03:23:29;7.75;;;2.80;;
51836;SDS011;38941;53.254;6.600;2024-02-26T03:25:32;5.97;;;3.20;;
51836;SDS011;38941;53.254;6.600;2024-02-26T03:27:33;7.03;;;2.85;;
51836;SDS011;38941;53.254;6.600;2024-02-26T03:29:35;5.68;;;2.80;;
51836;SDS011;38941;53.254;6.600;2024-02-26T03:31:35;5.15;;;3.00;;
51836;SDS011;38941;53.254;6.600;2024-02-26T03:33:37;4.45;;;2.60;;
51836;SDS011;38941;53.254;6.600;2024-02-26T03:35:39;6.40;;;3.00;;
51836;SDS011;38941;53.254;6.600;2024-02-26T03:37:41;6.03;;;2.97;;
51836;SDS011;38941;53.254;6.600;2024-02-26T03:39:42;5.18;;;2.83;;
51836;SDS011;38941;53.254;6.600;2024-02-26T03:41:43;5.90;;;2.83;;
51836;SDS011;38941;53.254;6.600;2024-02-26T03:43:45;5.40;;;2.58;;
51836;SDS011;38941;53.254;6.600;2024-02-26T03:45:47;6.25;;;3.00;;
51836;SDS011;38941;53.254;6.600;2024-02-26T03:47:48;6.15;;;2.80;;
51836;SDS011;38941;53.254;6.600;2024-02-26T03:49:49;5.85;;;2.67;;
51836;SDS011;38941;53.254;6.600;2024-02-26T03:51:52;5.75;;;2.80;;
51836;SDS011;38941;53.254;6.600;2024-02-26T03:53:52;5.70;;;2.60;;
51836;SDS011;38941;53.254;6.600;2024-02-26T03:55:55;9.70;;;2.92;;
51836;SDS011;38941;53.254;6.600;2024-02-26T03:57:56;5.68;;;2.65;;
51836;SDS011;38941;53.254;6.600;2024-02-26T04:00:03;5.30;;;3.03;;
51836;SDS011;38941;53.254;6.600;2024-02-26T04:02:06;5.57;;;2.67;;
51836;SDS011;38941;53.254;6.600;2024-02-26T04:04:07;4.88;;;2.65;;
51836;SDS011;38941;53.254;6.600;2024-02-26T04:06:09;7.95;;;2.95;;
51836;SDS011;38941;53.254;6.600;2024-02-26T04:08:12;7.40;;;2.90;;
51836;SDS011;38941;53.254;6.600;2024-02-26T04:10:16;7.35;;;2.85;;
51836;SDS011;38941;53.254;6.600;2024-02-26T04:12:17;6.10;;;2.92;;
51836;SDS011;38941;53.254;6.600;2024-02-26T04:14:18;5.05;;;2.97;;
51836;SDS011;38941;53.254;6.600;2024-02-26T04:16:20;6.00;;;2.67;;
51836;SDS011;38941;53.254;6.600;2024-02-26T04:18:21;7.65;;;2.60;;
51836;SDS011;38941;53.254;6.600;2024-02-26T04:20:23;4.53;;;2.70;;
51836;SDS011;38941;53.254;6.600;2024-02-26T04:22:25;5.03;;;3.03;;
51836;SDS011;38941;53.254;6.600;2024-02-26T04:24:27;7.22;;;2.90;;
51836;SDS011;38941;53.254;6.600;2024-02-26T04:26:29;7.35;;;2.97;;
51836;SDS011;38941;53.254;6.600;2024-02-26T04:28:30;6.15;;;3.00;;
51836;SDS011;38941;53.254;6.600;2024-02-26T04:30:33;4.43;;;2.38;;
51836;SDS011;38941;53.254;6.600;2024-02-26T04:32:34;6.50;;;2.78;;
51836;SDS011;38941;53.254;6.600;2024-02-26T04:34:36;8.15;;;2.50;;
51836;SDS011;38941;53.254;6.600;2024-02-26T04:36:36;6.15;;;2.45;;
51836;SDS011;38941;53.254;6.600;2024-02-26T04:38:37;5.63;;;2.28;;
51836;SDS011;38941;53.254;6.600;2024-02-26T04:40:47;4.95;;;2.08;;
51836;SDS011;38941;53.254;6.600;2024-02-26T04:42:49;4.20;;;2.63;;
51836;SDS011;38941;53.254;6.600;2024-02-26T04:44:51;5.68;;;2.92;;
51836;SDS011;38941;53.254;6.600;2024-02-26T04:46:51;4.65;;;2.55;;
51836;SDS011;38941;53.254;6.600;2024-02-26T04:48:56;5.57;;;2.42;;
51836;SDS011;38941;53.254;6.600;2024-02-26T04:50:57;3.80;;;2.05;;
51836;SDS011;38941;53.254;6.600;2024-02-26T04:52:59;3.92;;;2.08;;
51836;SDS011;38941;53.254;6.600;2024-02-26T04:55:02;5.32;;;2.40;;
51836;SDS011;38941;53.254;6.600;2024-02-26T04:57:04;4.35;;;1.90;;
51836;SDS011;38941;53.254;6.600;2024-02-26T04:59:05;3.78;;;1.80;;
51836;SDS011;38941;53.254;6.600;2024-02-26T05:01:06;4.78;;;1.70;;
51836;SDS011;38941;53.254;6.600;2024-02-26T05:03:10;6.20;;;2.05;;
51836;SDS011;38941;53.254;6.600;2024-02-26T05:05:21;4.32;;;2.00;;
51836;SDS011;38941;53.254;6.600;2024-02-26T05:07:22;3.40;;;1.80;;
51836;SDS011;38941;53.254;6.600;2024-02-26T05:09:25;8.52;;;2.05;;
51836;SDS011;38941;53.254;6.600;2024-02-26T05:11:26;5.00;;;1.85;;
51836;SDS011;38941;53.254;6.600;2024-02-26T05:13:29;3.20;;;1.77;;
51836;SDS011;38941;53.254;6.600;2024-02-26T05:15:32;5.35;;;2.10;;
51836;SDS011;38941;53.254;6.600;2024-02-26T05:17:34;3.17;;;2.15;;
51836;SDS011;38941;53.254;6.600;2024-02-26T05:19:36;4.07;;;1.92;;
51836;SDS011;38941;53.254;6.600;2024-02-26T05:21:37;5.55;;;2.33;;
51836;SDS011;38941;53.254;6.600;2024-02-26T05:23:38;4.60;;;2.13;;
51836;SDS011;38941;53.254;6.600;2024-02-26T05:25:39;3.80;;;2.00;;
51836;SDS011;38941;53.254;6.600;2024-02-26T05:27:43;4.97;;;1.90;;
51836;SDS011;38941;53.254;6.600;2024-02-26T05:29:44;3.97;;;2.40;;
51836;SDS011;38941;53.254;6.600;2024-02-26T05:31:52;3.33;;;1.92;;
51836;SDS011;38941;53.254;6.600;2024-02-26T05:33:54;4.32;;;2.10;;
51836;SDS011;38941;53.254;6.600;2024-02-26T05:35:55;3.50;;;2.05;;
51836;SDS011;38941;53.254;6.600;2024-02-26T05:37:55;3.05;;;1.92;;
51836;SDS011;38941;53.254;6.600;2024-02-26T05:39:56;3.15;;;1.67;;
51836;SDS011;38941;53.254;6.600;2024-02-26T05:41:58;3.35;;;1.83;;
51836;SDS011;38941;53.254;6.600;2024-02-26T05:44:00;2.10;;;1.35;;
51836;SDS011;38941;53.254;6.600;2024-02-26T05:46:01;4.95;;;1.98;;
51836;SDS011;38941;53.254;6.600;2024-02-26T05:48:02;3.95;;;2.40;;
51836;SDS011;38941;53.254;6.600;2024-02-26T05:50:04;3.95;;;1.65;;
51836;SDS011;38941;53.254;6.600;2024-02-26T05:52:07;3.22;;;1.60;;
51836;SDS011;38941;53.254;6.600;2024-02-26T05:54:07;4.00;;;1.80;;
51836;SDS011;38941;53.254;6.600;2024-02-26T05:56:11;6.32;;;1.30;;
51836;SDS011;38941;53.254;6.600;2024-02-26T05:58:11;6.47;;;1.83;;
51836;SDS011;38941;53.254;6.600;2024-02-26T06:00:14;6.15;;;1.98;;
51836;SDS011;38941;53.254;6.600;2024-02-26T06:02:17;3.28;;;1.75;;
51836;SDS011;38941;53.254;6.600;2024-02-26T06:04:18;2.10;;;1.50;;
51836;SDS011;38941;53.254;6.600;2024-02-26T06:06:19;2.58;;;1.77;;
51836;SDS011;38941;53.254;6.600;2024-02-26T06:08:22;2.90;;;1.58;;
51836;SDS011;38941;53.254;6.600;2024-02-26T06:10:23;2.75;;;1.45;;
51836;SDS011;38941;53.254;6.600;2024-02-26T06:12:24;2.42;;;1.58;;
51836;SDS011;38941;53.254;6.600;2024-02-26T06:14:27;2.90;;;1.75;;
51836;SDS011;38941;53.254;6.600;2024-02-26T06:16:28;2.97;;;1.77;;
51836;SDS011;38941;53.254;6.600;2024-02-26T06:18:30;3.13;;;1.50;;
51836;SDS011;38941;53.254;6.600;2024-02-26T06:20:31;2.85;;;1.67;;
51836;SDS011;38941;53.254;6.600;2024-02-26T06:22:31;2.33;;;1.50;;
51836;SDS011;38941;53.254;6.600;2024-02-26T06:24:32;3.03;;;1.90;;
51836;SDS011;38941;53.254;6.600;2024-02-26T06:26:33;4.55;;;1.73;;
51836;SDS011;38941;53.254;6.600;2024-02-26T06:28:34;1.98;;;1.42;;
51836;SDS011;38941;53.254;6.600;2024-02-26T06:30:35;3.38;;;1.75;;
51836;SDS011;38941;53.254;6.600;2024-02-26T06:32:37;3.38;;;2.00;;
51836;SDS011;38941;53.254;6.600;2024-02-26T06:34:38;2.40;;;1.73;;
51836;SDS011;38941;53.254;6.600;2024-02-26T06:36:41;3.58;;;1.85;;
51836;SDS011;38941;53.254;6.600;2024-02-26T06:38:41;2.72;;;1.70;;
51836;SDS011;38941;53.254;6.600;2024-02-26T06:40:42;5.05;;;1.90;;
51836;SDS011;38941;53.254;6.600;2024-02-26T06:42:44;4.10;;;2.05;;
51836;SDS011;38941;53.254;6.600;2024-02-26T06:44:44;6.15;;;2.28;;
51836;SDS011;38941;53.254;6.600;2024-02-26T06:46:47;5.20;;;2.00;;
51836;SDS011;38941;53.254;6.600;2024-02-26T06:48:49;2.65;;;1.80;;
51836;SDS011;38941;53.254;6.600;2024-02-26T06:50:52;4.38;;;1.35;;
51836;SDS011;38941;53.254;6.600;2024-02-26T06:52:53;4.05;;;1.48;;
51836;SDS011;38941;53.254;6.600;2024-02-26T06:54:53;2.75;;;1.40;;
51836;SDS011;38941;53.254;6.600;2024-02-26T06:56:54;3.08;;;1.80;;
51836;SDS011;38941;53.254;6.600;2024-02-26T06:58:55;2.63;;;1.55;;
51836;SDS011;38941;53.254;6.600;2024-02-26T07:00:57;6.88;;;1.52;;
51836;SDS011;38941;53.254;6.600;2024-02-26T07:02:58;2.80;;;1.80;;
51836;SDS011;38941;53.254;6.600;2024-02-26T07:04:59;3.38;;;1.80;;
51836;SDS011;38941;53.254;6.600;2024-02-26T07:07:01;2.25;;;1.45;;
51836;SDS011;38941;53.254;6.600;2024-02-26T07:09:02;2.47;;;1.55;;
51836;SDS011;38941;53.254;6.600;2024-02-26T07:11:03;5.50;;;1.80;;
51836;SDS011;38941;53.254;6.600;2024-02-26T07:13:07;3.75;;;1.95;;
51836;SDS011;38941;53.254;6.600;2024-02-26T07:15:08;4.93;;;1.80;;
51836;SDS011;38941;53.254;6.600;2024-02-26T07:17:11;2.83;;;1.85;;
51836;SDS011;38941;53.254;6.600;2024-02-26T07:19:11;4.13;;;1.48;;
51836;SDS011;38941;53.254;6.600;2024-02-26T07:21:13;2.25;;;1.42;;
51836;SDS011;38941;53.254;6.600;2024-02-26T07:23:14;2.75;;;2.30;;
51836;SDS011;38941;53.254;6.600;2024-02-26T07:25:17;2.47;;;1.60;;
51836;SDS011;38941;53.254;6.600;2024-02-26T07:27:18;2.75;;;1.60;;
51836;SDS011;38941;53.254;6.600;2024-02-26T07:29:20;2.97;;;1.58;;
51836;SDS011;38941;53.254;6.600;2024-02-26T07:31:21;2.30;;;1.40;;
51836;SDS011;38941;53.254;6.600;2024-02-26T07:33:21;3.20;;;1.50;;
51836;SDS011;38941;53.254;6.600;2024-02-26T07:35:23;1.88;;;1.45;;
51836;SDS011;38941;53.254;6.600;2024-02-26T07:37:24;6.63;;;1.85;;
51836;SDS011;38941;53.254;6.600;2024-02-26T07:39:26;2.50;;;1.27;;
51836;SDS011;38941;53.254;6.600;2024-02-26T07:41:26;4.22;;;1.15;;
51836;SDS011;38941;53.254;6.600;2024-02-26T07:43:27;3.17;;;1.10;;
51836;SDS011;38941;53.254;6.600;2024-02-26T07:45:29;2.17;;;1.50;;
51836;SDS011;38941;53.254;6.600;2024-02-26T07:47:29;2.15;;;1.40;;
51836;SDS011;38941;53.254;6.600;2024-02-26T07:49:32;1.50;;;1.15;;
51836;SDS011;38941;53.254;6.600;2024-02-26T07:51:33;3.35;;;1.58;;
51836;SDS011;38941;53.254;6.600;2024-02-26T07:53:35;1.30;;;1.10;;
51836;SDS011;38941;53.254;6.600;2024-02-26T07:55:36;1.58;;;1.10;;
51836;SDS011;38941;53.254;6.600;2024-02-26T07:57:37;2.47;;;1.55;;
51836;SDS011;38941;53.254;6.600;2024-02-26T07:59:41;1.95;;;1.23;;
51836;SDS011;38941;53.254;6.600;2024-02-26T08:01:42;4.28;;;1.25;;
51836;SDS011;38941;53.254;6.600;2024-02-26T08:03:43;2.13;;;1.70;;
51836;SDS011;38941;53.254;6.600;2024-02-26T08:05:44;4.78;;;1.98;;
51836;SDS011;38941;53.254;6.600;2024-02-26T08:07:45;2.38;;;1.20;;
51836;SDS011;38941;53.254;6.600;2024-02-26T08:09:46;1.80;;;1.30;;
51836;SDS011;38941;53.254;6.600;2024-02-26T08:11:48;2.35;;;1.10;;
51836;SDS011;38941;53.254;6.600;2024-02-26T08:13:49;1.95;;;1.20;;
51836;SDS011;38941;53.254;6.600;2024-02-26T08:15:51;1.98;;;1.00;;
51836;SDS011;38941;53.254;6.600;2024-02-26T08:17:51;1.33;;;1.00;;
51836;SDS011;38941;53.254;6.600;2024-02-26T08:19:54;1.10;;;0.68;;
51836;SDS011;38941;53.254;6.600;2024-02-26T08:21:56;5.68;;;1.00;;
51836;SDS011;38941;53.254;6.600;2024-02-26T08:23:57;1.40;;;0.90;;
51836;SDS011;38941;53.254;6.600;2024-02-26T08:25:59;5.57;;;1.60;;
51836;SDS011;38941;53.254;6.600;2024-02-26T08:28:00;0.82;;;0.80;;
51836;SDS011;38941;53.254;6.600;2024-02-26T08:30:01;2.28;;;1.00;;
51836;SDS011;38941;53.254;6.600;2024-02-26T08:32:03;1.75;;;0.90;;
51836;SDS011;38941;53.254;6.600;2024-02-26T08:34:04;2.35;;;0.70;;
51836;SDS011;38941;53.254;6.600;2024-02-26T08:36:05;1.10;;;0.68;;
51836;SDS011;38941;53.254;6.600;2024-02-26T08:38:06;5.28;;;1.10;;
51836;SDS011;38941;53.254;6.600;2024-02-26T08:40:07;3.40;;;1.02;;
51836;SDS011;38941;53.254;6.600;2024-02-26T08:42:08;2.22;;;0.88;;
51836;SDS011;38941;53.254;6.600;2024-02-26T08:44:08;1.55;;;0.95;;
51836;SDS011;38941;53.254;6.600;2024-02-26T08:46:09;2.08;;;1.20;;
51836;SDS011;38941;53.254;6.600;2024-02-26T08:48:12;1.27;;;1.00;;
51836;SDS011;38941;53.254;6.600;2024-02-26T08:50:13;2.50;;;1.73;;
51836;SDS011;38941;53.254;6.600;2024-02-26T08:52:14;1.67;;;1.05;;
51836;SDS011;38941;53.254;6.600;2024-02-26T08:54:15;1.92;;;1.30;;
51836;SDS011;38941;53.254;6.600;2024-02-26T08:56:16;2.92;;;1.30;;
51836;SDS011;38941;53.254;6.600;2024-02-26T08:58:17;3.92;;;1.30;;
51836;SDS011;38941;53.254;6.600;2024-02-26T09:00:18;1.90;;;1.30;;
51836;SDS011;38941;53.254;6.600;2024-02-26T09:02:20;7.68;;;1.10;;
51836;SDS011;38941;53.254;6.600;2024-02-26T09:04:21;3.05;;;1.20;;
51836;SDS011;38941;53.254;6.600;2024-02-26T09:06:22;1.92;;;1.10;;
51836;SDS011;38941;53.254;6.600;2024-02-26T09:08:23;1.85;;;1.23;;
51836;SDS011;38941;53.254;6.600;2024-02-26T09:10:25;2.90;;;0.93;;
51836;SDS011;38941;53.254;6.600;2024-02-26T09:12:26;3.95;;;1.20;;
51836;SDS011;38941;53.254;6.600;2024-02-26T09:14:27;2.85;;;1.25;;
51836;SDS011;38941;53.254;6.600;2024-02-26T09:16:29;3.80;;;1.45;;
51836;SDS011;38941;53.254;6.600;2024-02-26T09:18:30;1.30;;;1.10;;
51836;SDS011;38941;53.254;6.600;2024-02-26T09:20:31;3.38;;;1.05;;
51836;SDS011;38941;53.254;6.600;2024-02-26T09:22:32;3.92;;;1.48;;
51836;SDS011;38941;53.254;6.600;2024-02-26T09:24:40;2.90;;;1.63;;
51836;SDS011;38941;53.254;6.600;2024-02-26T09:26:41;1.95;;;1.30;;
51836;SDS011;38941;53.254;6.600;2024-02-26T09:28:44;4.07;;;1.52;;
51836;SDS011;38941;53.254;6.600;2024-02-26T09:30:45;2.25;;;1.40;;
51836;SDS011;38941;53.254;6.600;2024-02-26T09:32:46;2.30;;;1.40;;
51836;SDS011;38941;53.254;6.600;2024-02-26T09:34:48;2.40;;;1.45;;
51836;SDS011;38941;53.254;6.600;2024-02-26T09:36:48;2.72;;;1.45;;
51836;SDS011;38941;53.254;6.600;2024-02-26T09:38:50;2.45;;;1.50;;
51836;SDS011;38941;53.254;6.600;2024-02-26T09:40:51;5.75;;;2.00;;
51836;SDS011;38941;53.254;6.600;2024-02-26T09:42:53;2.28;;;1.55;;
51836;SDS011;38941;53.254;6.600;2024-02-26T09:45:05;4.88;;;1.38;;
51836;SDS011;38941;53.254;6.600;2024-02-26T09:47:09;4.75;;;1.60;;
51836;SDS011;38941;53.254;6.600;2024-02-26T09:49:11;1.92;;;1.20;;
51836;SDS011;38941;53.254;6.600;2024-02-26T09:51:14;1.80;;;1.10;;
51836;SDS011;38941;53.254;6.600;2024-02-26T09:53:17;4.20;;;1.85;;
51836;SDS011;38941;53.254;6.600;2024-02-26T09:55:22;3.60;;;1.10;;
51836;SDS011;38941;53.254;6.600;2024-02-26T09:57:24;3.40;;;1.20;;
51836;SDS011;38941;53.254;6.600;2024-02-26T09:59:26;6.00;;;1.20;;
51836;SDS011;38941;53.254;6.600;2024-02-26T10:01:27;1.92;;;1.20;;
51836;SDS011;38941;53.254;6.600;2024-02-26T10:03:34;3.33;;;1.23;;
51836;SDS011;38941;53.254;6.600;2024-02-26T10:05:42;1.15;;;0.98;;
51836;SDS011;38941;53.254;6.600;2024-02-26T10:07:44;2.42;;;1.00;;
51836;SDS011;38941;53.254;6.600;2024-02-26T10:09:47;1.88;;;1.00;;
51836;SDS011;38941;53.254;6.600;2024-02-26T10:11:48;1.38;;;0.98;;
51836;SDS011;38941;53.254;6.600;2024-02-26T10:13:50;1.13;;;0.80;;
51836;SDS011;38941;53.254;6.600;2024-02-26T10:15:51;2.17;;;1.35;;
51836;SDS011;38941;53.254;6.600;2024-02-26T10:17:52;1.40;;;1.00;;
51836;SDS011;38941;53.254;6.600;2024-02-26T10:19:53;1.02;;;0.82;;
51836;SDS011;38941;53.254;6.600;2024-02-26T10:21:57;1.55;;;0.63;;
51836;SDS011;38941;53.254;6.600;2024-02-26T10:23:59;2.00;;;0.60;;
51836;SDS011;38941;53.254;6.600;2024-02-26T10:26:00;2.55;;;1.10;;
51836;SDS011;38941;53.254;6.600;2024-02-26T10:28:01;1.60;;;0.70;;
51836;SDS011;38941;53.254;6.600;2024-02-26T10:30:23;0.90;;;0.60;;
51836;SDS011;38941;53.254;6.600;2024-02-26T10:32:26;2.58;;;1.02;;
51836;SDS011;38941;53.254;6.600;2024-02-26T10:34:27;1.23;;;0.80;;
51836;SDS011;38941;53.254;6.600;2024-02-26T10:36:28;1.85;;;1.45;;
51836;SDS011;38941;53.254;6.600;2024-02-26T10:38:30;3.92;;;1.02;;
51836;SDS011;38941;53.254;6.600;2024-02-26T10:40:33;1.92;;;0.70;;
51836;SDS011;38941;53.254;6.600;2024-02-26T10:42:33;1.73;;;1.10;;
51836;SDS011;38941;53.254;6.600;2024-02-26T10:44:34;2.55;;;1.33;;
51836;SDS011;38941;53.254;6.600;2024-02-26T10:46:36;1.45;;;0.70;;
51836;SDS011;38941;53.254;6.600;2024-02-26T10:48:38;1.33;;;0.82;;
51836;SDS011;38941;53.254;6.600;2024-02-26T10:50:40;1.38;;;0.77;;
51836;SDS011;38941;53.254;6.600;2024-02-26T10:52:43;1.42;;;0.68;;
51836;SDS011;38941;53.254;6.600;2024-02-26T10:54:44;2.35;;;0.90;;
51836;SDS011;38941;53.254;6.600;2024-02-26T10:56:48;2.78;;;1.00;;
51836;SDS011;38941;53.254;6.600;2024-02-26T10:58:50;1.70;;;1.13;;
51836;SDS011;38941;53.254;6.600;2024-02-26T11:00:52;2.38;;;1.10;;
51836;SDS011;38941;53.254;6.600;2024-02-26T11:02:55;3.33;;;1.58;;
51836;SDS011;38941;53.254;6.600;2024-02-26T11:05:01;1.70;;;1.20;;
51836;SDS011;38941;53.254;6.600;2024-02-26T11:07:04;2.33;;;1.33;;
51836;SDS011;38941;53.254;6.600;2024-02-26T11:09:05;4.97;;;1.58;;
51836;SDS011;38941;53.254;6.600;2024-02-26T11:11:09;1.73;;;1.23;;
51836;SDS011;38941;53.254;6.600;2024-02-26T11:13:13;2.92;;;1.27;;
51836;SDS011;38941;53.254;6.600;2024-02-26T11:15:16;1.45;;;1.20;;
51836;SDS011;38941;53.254;6.600;2024-02-26T11:17:18;2.17;;;1.50;;
51836;SDS011;38941;53.254;6.600;2024-02-26T11:19:20;4.40;;;1.95;;
51836;SDS011;38941;53.254;6.600;2024-02-26T11:21:23;2.67;;;1.80;;
51836;SDS011;38941;53.254;6.600;2024-02-26T11:23:30;1.85;;;1.38;;
51836;SDS011;38941;53.254;6.600;2024-02-26T11:25:32;5.30;;;1.80;;
51836;SDS011;38941;53.254;6.600;2024-02-26T11:27:35;6.35;;;1.67;;
51836;SDS011;38941;53.254;6.600;2024-02-26T11:29:43;4.78;;;2.13;;
51836;SDS011;38941;53.254;6.600;2024-02-26T11:31:50;4.15;;;1.90;;
51836;SDS011;38941;53.254;6.600;2024-02-26T11:33:51;5.30;;;1.98;;
51836;SDS011;38941;53.254;6.600;2024-02-26T11:35:53;3.85;;;1.90;;
51836;SDS011;38941;53.254;6.600;2024-02-26T11:37:54;7.93;;;2.70;;
51836;SDS011;38941;53.254;6.600;2024-02-26T11:39:56;3.55;;;1.88;;
51836;SDS011;38941;53.254;6.600;2024-02-26T11:42:04;4.25;;;2.03;;
51836;SDS011;38941;53.254;6.600;2024-02-26T11:44:09;9.15;;;2.67;;
51836;SDS011;38941;53.254;6.600;2024-02-26T11:46:24;3.22;;;1.80;;
51836;SDS011;38941;53.254;6.600;2024-02-26T11:48:33;4.47;;;2.05;;
51836;SDS011;38941;53.254;6.600;2024-02-26T11:50:35;4.75;;;2.60;;
51836;SDS011;38941;53.254;6.600;2024-02-26T11:52:41;5.50;;;2.28;;
51836;SDS011;38941;53.254;6.600;2024-02-26T11:55:01;5.25;;;2.10;;
51836;SDS011;38941;53.254;6.600;2024-02-26T11:57:02;4.65;;;2.15;;
51836;SDS011;38941;53.254;6.600;2024-02-26T11:59:09;4.55;;;2.40;;
51836;SDS011;38941;53.254;6.600;2024-02-26T12:03:48;4.95;;;2.33;;
51836;SDS011;38941;53.254;6.600;2024-02-26T12:05:49;3.97;;;2.45;;
51836;SDS011;38941;53.254;6.600;2024-02-26T12:07:55;5.38;;;2.42;;
51836;SDS011;38941;53.254;6.600;2024-02-26T12:12:36;4.60;;;2.67;;
51836;SDS011;38941;53.254;6.600;2024-02-26T12:14:41;3.83;;;2.20;;
51836;SDS011;38941;53.254;6.600;2024-02-26T12:16:55;6.80;;;3.20;;
51836;SDS011;38941;53.254;6.600;2024-02-26T12:18:56;5.43;;;2.65;;
51836;SDS011;38941;53.254;6.600;2024-02-26T12:20:58;5.35;;;2.50;;
51836;SDS011;38941;53.254;6.600;2024-02-26T12:23:01;6.13;;;3.03;;